sensor_id;sensor_type;location;lat;lon;timestamp;temperature;humidity
2873;DHT22;1444;49.166;7.312;2023-05-10T00:02:00;15.10;99.90
2873;DHT22;1444;49.166;7.312;2023-05-10T00:04:27;15.00;99.90
2873;DHT22;1444;49.166;7.312;2023-05-10T00:06:54;15.00;99.90
2873;DHT22;1444;49.166;7.312;2023-05-10T00:09:21;15.00;99.90
2873;DHT22;1444;49.166;7.312;2023-05-10T00:11:49;15.10;99.90
2873;DHT22;1444;49.166;7.312;2023-05-10T00:14:16;15.10;99.90
2873;DHT22;1444;49.166;7.312;2023-05-10T00:16:43;15.20;99.90
2873;DHT22;1444;49.166;7.312;2023-05-10T00:19:10;15.20;99.90
2873;DHT22;1444;49.166;7.312;2023-05-10T00:21:37;15.10;99.90
2873;DHT22;1444;49.166;7.312;2023-05-10T00:24:05;15.20;99.90
2873;DHT22;1444;49.166;7.312;2023-05-10T00:26:32;15.10;99.90
2873;DHT22;1444;49.166;7.312;2023-05-10T00:29:00;15.10;99.90
2873;DHT22;1444;49.166;7.312;2023-05-10T00:31:27;15.10;99.90
2873;DHT22;1444;49.166;7.312;2023-05-10T00:33:54;15.10;99.90
2873;DHT22;1444;49.166;7.312;2023-05-10T00:36:21;15.10;99.90
2873;DHT22;1444;49.166;7.312;2023-05-10T00:38:48;15.10;99.90
2873;DHT22;1444;49.166;7.312;2023-05-10T00:41:15;15.00;99.90
2873;DHT22;1444;49.166;7.312;2023-05-10T00:43:42;14.90;99.90
2873;DHT22;1444;49.166;7.312;2023-05-10T00:46:10;14.90;99.90
2873;DHT22;1444;49.166;7.312;2023-05-10T00:48:39;14.90;99.90
2873;DHT22;1444;49.166;7.312;2023-05-10T00:51:06;15.00;99.90
2873;DHT22;1444;49.166;7.312;2023-05-10T00:53:34;14.90;99.90
2873;DHT22;1444;49.166;7.312;2023-05-10T00:56:02;15.00;99.90
2873;DHT22;1444;49.166;7.312;2023-05-10T00:58:29;15.00;99.90
2873;DHT22;1444;49.166;7.312;2023-05-10T01:00:56;15.00;99.90
2873;DHT22;1444;49.166;7.312;2023-05-10T01:03:25;15.00;99.90
2873;DHT22;1444;49.166;7.312;2023-05-10T01:05:52;14.90;99.90
2873;DHT22;1444;49.166;7.312;2023-05-10T01:08:19;15.00;99.90
2873;DHT22;1444;49.166;7.312;2023-05-10T01:10:46;15.00;99.90
2873;DHT22;1444;49.166;7.312;2023-05-10T01:13:23;15.10;99.90
2873;DHT22;1444;49.166;7.312;2023-05-10T01:15:54;15.10;99.90
2873;DHT22;1444;49.166;7.312;2023-05-10T01:18:21;15.10;99.90
2873;DHT22;1444;49.166;7.312;2023-05-10T01:21:06;15.00;99.90
2873;DHT22;1444;49.166;7.312;2023-05-10T01:27:09;15.00;99.90
2873;DHT22;1444;49.166;7.312;2023-05-10T01:29:53;15.00;99.90
2873;DHT22;1444;49.166;7.312;2023-05-10T01:32:34;15.00;99.90
2873;DHT22;1444;49.166;7.312;2023-05-10T01:35:06;15.00;99.90
2873;DHT22;1444;49.166;7.312;2023-05-10T01:37:42;15.00;99.90
2873;DHT22;1444;49.166;7.312;2023-05-10T01:40:17;15.00;99.90
2873;DHT22;1444;49.166;7.312;2023-05-10T01:42:49;15.00;99.90
2873;DHT22;1444;49.166;7.312;2023-05-10T01:45:21;15.00;99.90
2873;DHT22;1444;49.166;7.312;2023-05-10T01:48:28;14.90;99.90
2873;DHT22;1444;49.166;7.312;2023-05-10T01:50:56;14.90;99.90
2873;DHT22;1444;49.166;7.312;2023-05-10T01:53:24;14.90;99.90
2873;DHT22;1444;49.166;7.312;2023-05-10T01:55:54;14.90;99.90
2873;DHT22;1444;49.166;7.312;2023-05-10T01:58:25;14.90;99.90
2873;DHT22;1444;49.166;7.312;2023-05-10T02:00:54;14.80;99.90
2873;DHT22;1444;49.166;7.312;2023-05-10T02:03:23;14.80;99.90
2873;DHT22;1444;49.166;7.312;2023-05-10T02:05:53;14.80;99.90
2873;DHT22;1444;49.166;7.312;2023-05-10T02:08:22;14.90;99.90
2873;DHT22;1444;49.166;7.312;2023-05-10T02:10:52;14.80;99.90
2873;DHT22;1444;49.166;7.312;2023-05-10T02:13:19;14.90;99.90
2873;DHT22;1444;49.166;7.312;2023-05-10T02:15:48;14.90;99.90
2873;DHT22;1444;49.166;7.312;2023-05-10T02:18:17;14.90;99.90
2873;DHT22;1444;49.166;7.312;2023-05-10T02:20:45;14.90;99.90
2873;DHT22;1444;49.166;7.312;2023-05-10T02:23:14;14.90;99.90
2873;DHT22;1444;49.166;7.312;2023-05-10T02:25:43;14.90;99.90
2873;DHT22;1444;49.166;7.312;2023-05-10T02:28:12;15.00;99.90
2873;DHT22;1444;49.166;7.312;2023-05-10T02:30:40;15.00;99.90
2873;DHT22;1444;49.166;7.312;2023-05-10T02:33:08;15.00;99.90
2873;DHT22;1444;49.166;7.312;2023-05-10T02:35:36;15.00;99.90
2873;DHT22;1444;49.166;7.312;2023-05-10T02:38:05;14.80;99.90
2873;DHT22;1444;49.166;7.312;2023-05-10T02:40:36;14.80;99.90
2873;DHT22;1444;49.166;7.312;2023-05-10T02:43:04;14.80;99.90
2873;DHT22;1444;49.166;7.312;2023-05-10T02:45:34;14.80;99.90
2873;DHT22;1444;49.166;7.312;2023-05-10T02:48:02;14.80;99.90
2873;DHT22;1444;49.166;7.312;2023-05-10T02:50:30;14.70;99.90
2873;DHT22;1444;49.166;7.312;2023-05-10T02:53:01;14.80;99.90
2873;DHT22;1444;49.166;7.312;2023-05-10T02:55:35;14.70;99.90
2873;DHT22;1444;49.166;7.312;2023-05-10T02:58:03;14.80;99.90
2873;DHT22;1444;49.166;7.312;2023-05-10T03:00:31;14.80;99.90
2873;DHT22;1444;49.166;7.312;2023-05-10T03:02:58;14.80;99.90
2873;DHT22;1444;49.166;7.312;2023-05-10T03:05:25;14.80;99.90
2873;DHT22;1444;49.166;7.312;2023-05-10T03:07:52;14.70;99.90
2873;DHT22;1444;49.166;7.312;2023-05-10T03:13:01;14.80;99.90
2873;DHT22;1444;49.166;7.312;2023-05-10T03:15:40;14.70;99.90
2873;DHT22;1444;49.166;7.312;2023-05-10T03:18:12;14.60;99.90
2873;DHT22;1444;49.166;7.312;2023-05-10T03:20:43;14.70;99.90
2873;DHT22;1444;49.166;7.312;2023-05-10T03:23:18;14.70;99.90
2873;DHT22;1444;49.166;7.312;2023-05-10T03:25:48;14.70;99.90
2873;DHT22;1444;49.166;7.312;2023-05-10T03:28:18;14.70;99.90
2873;DHT22;1444;49.166;7.312;2023-05-10T03:30:47;14.80;99.90
2873;DHT22;1444;49.166;7.312;2023-05-10T03:33:14;14.90;99.90
2873;DHT22;1444;49.166;7.312;2023-05-10T03:35:42;14.90;99.90
2873;DHT22;1444;49.166;7.312;2023-05-10T03:38:11;14.90;99.90
2873;DHT22;1444;49.166;7.312;2023-05-10T03:40:38;14.90;99.90
2873;DHT22;1444;49.166;7.312;2023-05-10T03:43:05;14.90;99.90
2873;DHT22;1444;49.166;7.312;2023-05-10T03:45:33;14.80;99.90
2873;DHT22;1444;49.166;7.312;2023-05-10T03:48:00;14.80;99.90
2873;DHT22;1444;49.166;7.312;2023-05-10T03:50:27;14.80;99.90
2873;DHT22;1444;49.166;7.312;2023-05-10T03:52:54;14.70;99.90
2873;DHT22;1444;49.166;7.312;2023-05-10T03:55:21;14.70;99.90
2873;DHT22;1444;49.166;7.312;2023-05-10T03:57:47;14.50;99.90
2873;DHT22;1444;49.166;7.312;2023-05-10T04:00:15;14.50;99.90
2873;DHT22;1444;49.166;7.312;2023-05-10T04:02:44;14.50;99.90
2873;DHT22;1444;49.166;7.312;2023-05-10T04:05:11;14.40;99.90
2873;DHT22;1444;49.166;7.312;2023-05-10T04:07:38;14.40;99.90
2873;DHT22;1444;49.166;7.312;2023-05-10T04:10:05;14.40;99.90
2873;DHT22;1444;49.166;7.312;2023-05-10T04:12:32;14.40;99.90
2873;DHT22;1444;49.166;7.312;2023-05-10T04:14:59;14.40;99.90
2873;DHT22;1444;49.166;7.312;2023-05-10T04:17:26;14.40;99.90
2873;DHT22;1444;49.166;7.312;2023-05-10T04:19:55;14.30;99.90
2873;DHT22;1444;49.166;7.312;2023-05-10T04:22:23;14.30;99.90
2873;DHT22;1444;49.166;7.312;2023-05-10T04:24:49;14.30;99.90
2873;DHT22;1444;49.166;7.312;2023-05-10T04:27:16;14.30;99.90
2873;DHT22;1444;49.166;7.312;2023-05-10T04:29:43;14.40;99.90
2873;DHT22;1444;49.166;7.312;2023-05-10T04:32:10;14.30;99.90
2873;DHT22;1444;49.166;7.312;2023-05-10T04:34:37;14.30;99.90
2873;DHT22;1444;49.166;7.312;2023-05-10T04:37:05;14.20;99.90
2873;DHT22;1444;49.166;7.312;2023-05-10T04:39:33;14.20;99.90
2873;DHT22;1444;49.166;7.312;2023-05-10T04:42:00;14.10;99.90
2873;DHT22;1444;49.166;7.312;2023-05-10T04:44:28;14.20;99.90
2873;DHT22;1444;49.166;7.312;2023-05-10T04:46:56;14.10;99.90
2873;DHT22;1444;49.166;7.312;2023-05-10T04:49:23;14.20;99.90
2873;DHT22;1444;49.166;7.312;2023-05-10T04:51:50;14.30;99.90
2873;DHT22;1444;49.166;7.312;2023-05-10T04:54:18;14.50;99.90
2873;DHT22;1444;49.166;7.312;2023-05-10T04:56:45;14.50;99.90
2873;DHT22;1444;49.166;7.312;2023-05-10T04:59:12;14.60;99.90
2873;DHT22;1444;49.166;7.312;2023-05-10T05:01:39;14.70;99.90
2873;DHT22;1444;49.166;7.312;2023-05-10T05:04:06;14.60;99.90
2873;DHT22;1444;49.166;7.312;2023-05-10T05:06:33;14.70;99.90
2873;DHT22;1444;49.166;7.312;2023-05-10T05:09:00;14.70;99.90
2873;DHT22;1444;49.166;7.312;2023-05-10T05:11:28;14.70;99.90
2873;DHT22;1444;49.166;7.312;2023-05-10T05:13:55;14.70;99.90
2873;DHT22;1444;49.166;7.312;2023-05-10T05:16:24;14.70;99.90
2873;DHT22;1444;49.166;7.312;2023-05-10T05:18:52;14.70;99.90
2873;DHT22;1444;49.166;7.312;2023-05-10T05:21:19;14.80;99.90
2873;DHT22;1444;49.166;7.312;2023-05-10T05:23:47;14.70;99.90
2873;DHT22;1444;49.166;7.312;2023-05-10T05:26:14;14.70;99.90
2873;DHT22;1444;49.166;7.312;2023-05-10T05:28:43;14.70;99.90
2873;DHT22;1444;49.166;7.312;2023-05-10T05:31:09;14.80;99.90
2873;DHT22;1444;49.166;7.312;2023-05-10T05:33:37;14.90;99.90
2873;DHT22;1444;49.166;7.312;2023-05-10T05:36:05;14.80;99.90
2873;DHT22;1444;49.166;7.312;2023-05-10T05:38:32;14.80;99.90
2873;DHT22;1444;49.166;7.312;2023-05-10T05:40:59;14.80;99.90
2873;DHT22;1444;49.166;7.312;2023-05-10T05:43:26;14.80;99.90
2873;DHT22;1444;49.166;7.312;2023-05-10T05:45:54;14.70;99.90
2873;DHT22;1444;49.166;7.312;2023-05-10T05:48:23;14.70;99.90
2873;DHT22;1444;49.166;7.312;2023-05-10T05:50:53;14.70;99.90
2873;DHT22;1444;49.166;7.312;2023-05-10T05:53:20;14.70;99.90
2873;DHT22;1444;49.166;7.312;2023-05-10T05:55:54;14.70;99.90
2873;DHT22;1444;49.166;7.312;2023-05-10T05:58:21;14.70;99.90
2873;DHT22;1444;49.166;7.312;2023-05-10T06:00:48;14.80;99.90
2873;DHT22;1444;49.166;7.312;2023-05-10T06:03:16;14.70;99.90
2873;DHT22;1444;49.166;7.312;2023-05-10T06:05:43;14.80;99.90
2873;DHT22;1444;49.166;7.312;2023-05-10T06:08:10;14.90;99.90
2873;DHT22;1444;49.166;7.312;2023-05-10T06:10:37;14.90;99.90
2873;DHT22;1444;49.166;7.312;2023-05-10T06:13:04;15.00;99.90
2873;DHT22;1444;49.166;7.312;2023-05-10T06:15:31;14.80;99.90
2873;DHT22;1444;49.166;7.312;2023-05-10T06:17:59;14.80;99.90
2873;DHT22;1444;49.166;7.312;2023-05-10T06:20:27;14.90;99.90
2873;DHT22;1444;49.166;7.312;2023-05-10T06:22:54;14.80;99.90
2873;DHT22;1444;49.166;7.312;2023-05-10T06:25:21;14.80;99.90
2873;DHT22;1444;49.166;7.312;2023-05-10T06:27:48;14.80;99.90
2873;DHT22;1444;49.166;7.312;2023-05-10T06:30:15;14.70;99.90
2873;DHT22;1444;49.166;7.312;2023-05-10T06:32:42;14.70;99.90
2873;DHT22;1444;49.166;7.312;2023-05-10T06:35:10;14.70;99.90
2873;DHT22;1444;49.166;7.312;2023-05-10T06:37:38;14.80;99.90
2873;DHT22;1444;49.166;7.312;2023-05-10T06:40:06;14.80;99.90
2873;DHT22;1444;49.166;7.312;2023-05-10T06:42:34;14.60;99.90
2873;DHT22;1444;49.166;7.312;2023-05-10T06:45:01;14.80;99.90
2873;DHT22;1444;49.166;7.312;2023-05-10T06:47:29;14.90;99.90
2873;DHT22;1444;49.166;7.312;2023-05-10T06:49:57;15.00;99.90
2873;DHT22;1444;49.166;7.312;2023-05-10T06:52:24;15.00;99.90
2873;DHT22;1444;49.166;7.312;2023-05-10T06:54:52;14.90;99.90
2873;DHT22;1444;49.166;7.312;2023-05-10T06:57:19;15.00;99.90
2873;DHT22;1444;49.166;7.312;2023-05-10T06:59:46;15.00;99.90
2873;DHT22;1444;49.166;7.312;2023-05-10T07:02:12;15.00;99.90
2873;DHT22;1444;49.166;7.312;2023-05-10T07:04:40;15.00;99.90
2873;DHT22;1444;49.166;7.312;2023-05-10T07:07:07;15.00;99.90
2873;DHT22;1444;49.166;7.312;2023-05-10T07:09:34;14.80;99.90
2873;DHT22;1444;49.166;7.312;2023-05-10T07:12:02;14.80;99.90
2873;DHT22;1444;49.166;7.312;2023-05-10T07:14:29;14.80;99.90
2873;DHT22;1444;49.166;7.312;2023-05-10T07:16:56;14.80;99.90
2873;DHT22;1444;49.166;7.312;2023-05-10T07:19:23;14.80;99.90
2873;DHT22;1444;49.166;7.312;2023-05-10T07:21:50;14.70;99.90
2873;DHT22;1444;49.166;7.312;2023-05-10T07:24:17;14.70;99.90
2873;DHT22;1444;49.166;7.312;2023-05-10T07:26:44;14.80;99.90
2873;DHT22;1444;49.166;7.312;2023-05-10T07:29:12;14.90;99.90
2873;DHT22;1444;49.166;7.312;2023-05-10T07:31:39;14.90;99.90
2873;DHT22;1444;49.166;7.312;2023-05-10T07:34:07;14.90;99.90
2873;DHT22;1444;49.166;7.312;2023-05-10T07:36:34;14.80;99.90
2873;DHT22;1444;49.166;7.312;2023-05-10T07:39:01;14.90;99.90
2873;DHT22;1444;49.166;7.312;2023-05-10T07:41:28;14.90;99.90
2873;DHT22;1444;49.166;7.312;2023-05-10T07:43:55;15.00;99.90
2873;DHT22;1444;49.166;7.312;2023-05-10T07:46:23;15.00;99.90
2873;DHT22;1444;49.166;7.312;2023-05-10T07:48:50;14.90;99.90
2873;DHT22;1444;49.166;7.312;2023-05-10T07:51:17;15.10;99.90
2873;DHT22;1444;49.166;7.312;2023-05-10T07:53:45;15.30;99.90
2873;DHT22;1444;49.166;7.312;2023-05-10T07:56:23;15.70;99.90
2873;DHT22;1444;49.166;7.312;2023-05-10T07:58:50;15.80;99.90
2873;DHT22;1444;49.166;7.312;2023-05-10T08:01:18;16.00;99.90
2873;DHT22;1444;49.166;7.312;2023-05-10T08:03:46;16.00;99.90
2873;DHT22;1444;49.166;7.312;2023-05-10T08:06:14;16.00;99.90
2873;DHT22;1444;49.166;7.312;2023-05-10T08:08:41;16.00;99.90
2873;DHT22;1444;49.166;7.312;2023-05-10T08:11:08;15.90;99.90
2873;DHT22;1444;49.166;7.312;2023-05-10T08:13:35;15.90;99.90
2873;DHT22;1444;49.166;7.312;2023-05-10T08:16:02;15.70;99.90
2873;DHT22;1444;49.166;7.312;2023-05-10T08:18:29;15.60;99.90
2873;DHT22;1444;49.166;7.312;2023-05-10T08:20:57;15.60;99.90
2873;DHT22;1444;49.166;7.312;2023-05-10T08:23:24;15.40;99.90
2873;DHT22;1444;49.166;7.312;2023-05-10T08:25:51;15.40;99.90
2873;DHT22;1444;49.166;7.312;2023-05-10T08:28:18;15.40;99.90
2873;DHT22;1444;49.166;7.312;2023-05-10T08:30:45;15.50;99.90
2873;DHT22;1444;49.166;7.312;2023-05-10T08:33:12;15.50;99.90
2873;DHT22;1444;49.166;7.312;2023-05-10T08:35:38;15.40;99.90
2873;DHT22;1444;49.166;7.312;2023-05-10T08:38:07;15.50;99.90
2873;DHT22;1444;49.166;7.312;2023-05-10T08:40:34;15.50;99.90
2873;DHT22;1444;49.166;7.312;2023-05-10T08:43:06;15.60;99.90
2873;DHT22;1444;49.166;7.312;2023-05-10T08:45:36;15.80;99.90
2873;DHT22;1444;49.166;7.312;2023-05-10T08:48:05;16.10;99.90
2873;DHT22;1444;49.166;7.312;2023-05-10T08:50:34;16.40;99.90
2873;DHT22;1444;49.166;7.312;2023-05-10T08:53:05;16.80;99.90
2873;DHT22;1444;49.166;7.312;2023-05-10T08:55:33;17.00;99.90
2873;DHT22;1444;49.166;7.312;2023-05-10T08:58:02;17.30;99.90
2873;DHT22;1444;49.166;7.312;2023-05-10T09:00:29;17.50;99.90
2873;DHT22;1444;49.166;7.312;2023-05-10T09:02:57;17.40;99.30
2873;DHT22;1444;49.166;7.312;2023-05-10T09:05:24;17.10;98.90
2873;DHT22;1444;49.166;7.312;2023-05-10T09:07:51;17.10;99.60
2873;DHT22;1444;49.166;7.312;2023-05-10T09:10:19;17.00;99.50
2873;DHT22;1444;49.166;7.312;2023-05-10T09:12:48;16.90;99.90
2873;DHT22;1444;49.166;7.312;2023-05-10T09:15:15;16.90;99.90
2873;DHT22;1444;49.166;7.312;2023-05-10T09:17:45;16.80;99.90
2873;DHT22;1444;49.166;7.312;2023-05-10T09:20:12;16.60;99.90
2873;DHT22;1444;49.166;7.312;2023-05-10T09:22:39;16.40;99.90
2873;DHT22;1444;49.166;7.312;2023-05-10T09:25:07;16.30;99.90
2873;DHT22;1444;49.166;7.312;2023-05-10T09:27:34;16.30;99.90
2873;DHT22;1444;49.166;7.312;2023-05-10T09:30:03;16.00;99.90
2873;DHT22;1444;49.166;7.312;2023-05-10T09:32:38;15.80;99.90
2873;DHT22;1444;49.166;7.312;2023-05-10T09:35:08;15.70;99.90
2873;DHT22;1444;49.166;7.312;2023-05-10T09:37:35;15.80;99.80
2873;DHT22;1444;49.166;7.312;2023-05-10T09:40:05;15.80;99.90
2873;DHT22;1444;49.166;7.312;2023-05-10T09:42:33;15.60;99.90
2873;DHT22;1444;49.166;7.312;2023-05-10T09:45:03;15.90;99.90
2873;DHT22;1444;49.166;7.312;2023-05-10T09:47:32;16.00;99.90
2873;DHT22;1444;49.166;7.312;2023-05-10T09:50:00;15.90;99.90
2873;DHT22;1444;49.166;7.312;2023-05-10T09:52:30;15.90;99.80
2873;DHT22;1444;49.166;7.312;2023-05-10T09:55:00;15.30;99.40
2873;DHT22;1444;49.166;7.312;2023-05-10T09:57:27;15.90;99.20
2873;DHT22;1444;49.166;7.312;2023-05-10T09:59:53;16.00;99.70
2873;DHT22;1444;49.166;7.312;2023-05-10T10:02:28;16.20;99.60
2873;DHT22;1444;49.166;7.312;2023-05-10T10:04:55;16.50;99.30
2873;DHT22;1444;49.166;7.312;2023-05-10T10:07:23;16.40;98.10
2873;DHT22;1444;49.166;7.312;2023-05-10T10:09:52;16.00;97.50
2873;DHT22;1444;49.166;7.312;2023-05-10T10:12:19;16.00;98.70
2873;DHT22;1444;49.166;7.312;2023-05-10T10:14:46;16.00;98.90
2873;DHT22;1444;49.166;7.312;2023-05-10T10:17:15;16.00;98.40
2873;DHT22;1444;49.166;7.312;2023-05-10T10:19:43;16.00;99.40
2873;DHT22;1444;49.166;7.312;2023-05-10T10:22:11;15.90;98.90
2873;DHT22;1444;49.166;7.312;2023-05-10T10:24:38;15.80;98.80
2873;DHT22;1444;49.166;7.312;2023-05-10T10:27:19;15.80;99.00
2873;DHT22;1444;49.166;7.312;2023-05-10T10:29:52;15.80;99.20
2873;DHT22;1444;49.166;7.312;2023-05-10T10:32:30;15.70;98.40
2873;DHT22;1444;49.166;7.312;2023-05-10T10:35:01;15.60;99.40
2873;DHT22;1444;49.166;7.312;2023-05-10T10:37:43;15.50;99.40
2873;DHT22;1444;49.166;7.312;2023-05-10T10:40:24;15.50;99.70
2873;DHT22;1444;49.166;7.312;2023-05-10T10:42:51;15.70;99.30
2873;DHT22;1444;49.166;7.312;2023-05-10T10:45:19;15.70;98.60
2873;DHT22;1444;49.166;7.312;2023-05-10T10:47:47;15.80;97.40
2873;DHT22;1444;49.166;7.312;2023-05-10T10:50:15;15.80;98.50
2873;DHT22;1444;49.166;7.312;2023-05-10T10:52:43;15.60;97.60
2873;DHT22;1444;49.166;7.312;2023-05-10T10:55:11;15.60;97.60
2873;DHT22;1444;49.166;7.312;2023-05-10T10:57:46;15.70;98.40
2873;DHT22;1444;49.166;7.312;2023-05-10T11:00:27;15.80;98.70
2873;DHT22;1444;49.166;7.312;2023-05-10T11:02:58;15.90;97.70
2873;DHT22;1444;49.166;7.312;2023-05-10T11:05:47;16.00;99.00
2873;DHT22;1444;49.166;7.312;2023-05-10T11:08:19;16.20;97.20
2873;DHT22;1444;49.166;7.312;2023-05-10T11:10:52;16.10;95.30
2873;DHT22;1444;49.166;7.312;2023-05-10T11:13:30;16.10;96.20
2873;DHT22;1444;49.166;7.312;2023-05-10T11:15:58;16.20;97.20
2873;DHT22;1444;49.166;7.312;2023-05-10T11:18:26;16.00;97.30
2873;DHT22;1444;49.166;7.312;2023-05-10T11:20:58;15.80;97.00
2873;DHT22;1444;49.166;7.312;2023-05-10T11:23:30;15.80;97.40
2873;DHT22;1444;49.166;7.312;2023-05-10T11:25:58;15.90;97.60
2873;DHT22;1444;49.166;7.312;2023-05-10T11:28:26;16.00;97.10
2873;DHT22;1444;49.166;7.312;2023-05-10T11:30:54;16.00;97.10
2873;DHT22;1444;49.166;7.312;2023-05-10T11:33:22;16.20;98.30
2873;DHT22;1444;49.166;7.312;2023-05-10T11:35:49;16.30;98.00
2873;DHT22;1444;49.166;7.312;2023-05-10T11:38:17;16.40;96.80
2873;DHT22;1444;49.166;7.312;2023-05-10T11:40:44;16.60;96.60
2873;DHT22;1444;49.166;7.312;2023-05-10T11:43:11;16.70;95.50
2873;DHT22;1444;49.166;7.312;2023-05-10T11:45:39;16.80;95.70
2873;DHT22;1444;49.166;7.312;2023-05-10T11:48:06;16.80;95.60
2873;DHT22;1444;49.166;7.312;2023-05-10T11:50:33;17.00;95.30
2873;DHT22;1444;49.166;7.312;2023-05-10T11:53:00;17.10;95.60
2873;DHT22;1444;49.166;7.312;2023-05-10T11:55:29;17.40;96.30
2873;DHT22;1444;49.166;7.312;2023-05-10T11:58:00;17.40;96.30
2873;DHT22;1444;49.166;7.312;2023-05-10T12:00:27;17.50;93.00
2873;DHT22;1444;49.166;7.312;2023-05-10T12:02:54;17.50;93.20
2873;DHT22;1444;49.166;7.312;2023-05-10T12:05:21;17.30;94.40
2873;DHT22;1444;49.166;7.312;2023-05-10T12:07:48;17.70;94.30
2873;DHT22;1444;49.166;7.312;2023-05-10T12:10:17;17.60;93.30
2873;DHT22;1444;49.166;7.312;2023-05-10T12:12:52;17.60;95.00
2873;DHT22;1444;49.166;7.312;2023-05-10T12:15:20;17.90;94.40
2873;DHT22;1444;49.166;7.312;2023-05-10T12:17:47;18.00;94.30
2873;DHT22;1444;49.166;7.312;2023-05-10T12:22:47;18.30;92.90
2873;DHT22;1444;49.166;7.312;2023-05-10T12:25:16;18.50;92.80
2873;DHT22;1444;49.166;7.312;2023-05-10T12:27:48;18.50;93.40
2873;DHT22;1444;49.166;7.312;2023-05-10T12:30:21;18.60;93.60
2873;DHT22;1444;49.166;7.312;2023-05-10T12:32:48;18.70;93.60
2873;DHT22;1444;49.166;7.312;2023-05-10T12:35:15;18.60;93.80
2873;DHT22;1444;49.166;7.312;2023-05-10T12:37:42;18.60;93.30
2873;DHT22;1444;49.166;7.312;2023-05-10T12:40:10;18.40;92.20
2873;DHT22;1444;49.166;7.312;2023-05-10T12:42:38;18.40;93.10
2873;DHT22;1444;49.166;7.312;2023-05-10T12:45:07;18.50;93.00
2873;DHT22;1444;49.166;7.312;2023-05-10T12:47:35;18.30;92.20
2873;DHT22;1444;49.166;7.312;2023-05-10T12:50:03;18.30;92.90
2873;DHT22;1444;49.166;7.312;2023-05-10T12:52:30;18.40;94.40
2873;DHT22;1444;49.166;7.312;2023-05-10T12:54:58;18.60;93.30
2873;DHT22;1444;49.166;7.312;2023-05-10T12:57:25;18.60;93.40
2873;DHT22;1444;49.166;7.312;2023-05-10T12:59:52;18.60;92.20
2873;DHT22;1444;49.166;7.312;2023-05-10T13:02:19;18.60;92.50
2873;DHT22;1444;49.166;7.312;2023-05-10T13:04:48;18.40;91.80
2873;DHT22;1444;49.166;7.312;2023-05-10T13:07:15;18.40;93.00
2873;DHT22;1444;49.166;7.312;2023-05-10T13:09:42;18.80;93.00
2873;DHT22;1444;49.166;7.312;2023-05-10T13:12:09;18.80;93.50
2873;DHT22;1444;49.166;7.312;2023-05-10T13:14:35;18.90;93.50
2873;DHT22;1444;49.166;7.312;2023-05-10T13:17:02;18.90;93.70
2873;DHT22;1444;49.166;7.312;2023-05-10T13:19:29;19.30;92.80
2873;DHT22;1444;49.166;7.312;2023-05-10T13:21:57;19.20;91.70
2873;DHT22;1444;49.166;7.312;2023-05-10T13:26:51;19.20;91.70
2873;DHT22;1444;49.166;7.312;2023-05-10T13:29:18;19.30;92.20
2873;DHT22;1444;49.166;7.312;2023-05-10T13:31:46;19.40;92.30
2873;DHT22;1444;49.166;7.312;2023-05-10T13:34:13;19.80;92.20
2873;DHT22;1444;49.166;7.312;2023-05-10T13:36:40;20.00;92.00
2873;DHT22;1444;49.166;7.312;2023-05-10T13:39:08;19.50;90.90
2873;DHT22;1444;49.166;7.312;2023-05-10T13:41:35;19.40;90.80
2873;DHT22;1444;49.166;7.312;2023-05-10T13:44:02;19.20;91.70
2873;DHT22;1444;49.166;7.312;2023-05-10T13:46:29;19.20;92.60
2873;DHT22;1444;49.166;7.312;2023-05-10T13:48:56;19.20;92.90
2873;DHT22;1444;49.166;7.312;2023-05-10T13:51:23;19.40;92.00
2873;DHT22;1444;49.166;7.312;2023-05-10T13:53:50;19.50;90.40
2873;DHT22;1444;49.166;7.312;2023-05-10T13:56:19;19.60;92.60
2873;DHT22;1444;49.166;7.312;2023-05-10T13:58:46;19.60;92.00
2873;DHT22;1444;49.166;7.312;2023-05-10T14:01:13;19.80;90.90
2873;DHT22;1444;49.166;7.312;2023-05-10T14:03:40;20.00;92.00
2873;DHT22;1444;49.166;7.312;2023-05-10T14:06:07;19.80;91.50
2873;DHT22;1444;49.166;7.312;2023-05-10T14:08:35;19.80;91.90
2873;DHT22;1444;49.166;7.312;2023-05-10T14:11:02;19.40;91.50
2873;DHT22;1444;49.166;7.312;2023-05-10T14:13:30;19.40;92.00
2873;DHT22;1444;49.166;7.312;2023-05-10T14:15:57;19.20;91.40
2873;DHT22;1444;49.166;7.312;2023-05-10T14:18:26;19.10;90.80
2873;DHT22;1444;49.166;7.312;2023-05-10T14:20:53;18.90;90.70
2873;DHT22;1444;49.166;7.312;2023-05-10T14:23:21;19.00;92.10
2873;DHT22;1444;49.166;7.312;2023-05-10T14:25:49;19.00;91.60
2873;DHT22;1444;49.166;7.312;2023-05-10T14:28:16;19.10;92.50
2873;DHT22;1444;49.166;7.312;2023-05-10T14:30:45;19.40;91.60
2873;DHT22;1444;49.166;7.312;2023-05-10T14:33:12;19.40;92.20
2873;DHT22;1444;49.166;7.312;2023-05-10T14:35:39;19.50;91.20
2873;DHT22;1444;49.166;7.312;2023-05-10T14:38:06;19.70;91.30
2873;DHT22;1444;49.166;7.312;2023-05-10T14:40:32;19.60;92.10
2873;DHT22;1444;49.166;7.312;2023-05-10T14:42:59;19.90;91.80
2873;DHT22;1444;49.166;7.312;2023-05-10T14:45:26;19.90;92.00
2873;DHT22;1444;49.166;7.312;2023-05-10T14:47:54;20.00;91.90
2873;DHT22;1444;49.166;7.312;2023-05-10T14:50:21;19.50;89.60
2873;DHT22;1444;49.166;7.312;2023-05-10T14:52:48;19.20;90.00
2873;DHT22;1444;49.166;7.312;2023-05-10T14:57:42;18.90;90.70
2873;DHT22;1444;49.166;7.312;2023-05-10T15:00:13;18.70;91.20
2873;DHT22;1444;49.166;7.312;2023-05-10T15:02:42;18.50;90.90
2873;DHT22;1444;49.166;7.312;2023-05-10T15:05:10;18.50;92.10
2873;DHT22;1444;49.166;7.312;2023-05-10T15:07:37;18.60;91.50
2873;DHT22;1444;49.166;7.312;2023-05-10T15:10:05;18.70;90.90
2873;DHT22;1444;49.166;7.312;2023-05-10T15:12:32;18.70;90.80
2873;DHT22;1444;49.166;7.312;2023-05-10T15:14:58;18.60;91.30
2873;DHT22;1444;49.166;7.312;2023-05-10T15:17:25;18.60;91.10
2873;DHT22;1444;49.166;7.312;2023-05-10T15:19:52;18.50;91.40
2873;DHT22;1444;49.166;7.312;2023-05-10T15:22:21;18.70;92.00
2873;DHT22;1444;49.166;7.312;2023-05-10T15:24:47;18.80;92.00
2873;DHT22;1444;49.166;7.312;2023-05-10T15:27:14;18.90;91.00
2873;DHT22;1444;49.166;7.312;2023-05-10T15:29:41;18.80;90.90
2873;DHT22;1444;49.166;7.312;2023-05-10T15:32:08;18.60;91.50
2873;DHT22;1444;49.166;7.312;2023-05-10T15:34:35;18.50;92.10
2873;DHT22;1444;49.166;7.312;2023-05-10T15:37:02;18.30;91.70
2873;DHT22;1444;49.166;7.312;2023-05-10T15:39:30;17.80;93.80
2873;DHT22;1444;49.166;7.312;2023-05-10T15:41:57;17.50;94.10
2873;DHT22;1444;49.166;7.312;2023-05-10T15:44:24;17.50;94.60
2873;DHT22;1444;49.166;7.312;2023-05-10T15:46:51;17.30;95.10
2873;DHT22;1444;49.166;7.312;2023-05-10T15:49:18;17.20;95.60
2873;DHT22;1444;49.166;7.312;2023-05-10T15:51:45;17.00;95.60
2873;DHT22;1444;49.166;7.312;2023-05-10T15:54:12;16.80;95.00
2873;DHT22;1444;49.166;7.312;2023-05-10T15:56:41;16.80;95.30
2873;DHT22;1444;49.166;7.312;2023-05-10T15:59:08;16.80;95.60
2873;DHT22;1444;49.166;7.312;2023-05-10T16:01:36;16.70;95.50
2873;DHT22;1444;49.166;7.312;2023-05-10T16:04:03;16.70;96.30
2873;DHT22;1444;49.166;7.312;2023-05-10T16:06:30;16.80;96.70
2873;DHT22;1444;49.166;7.312;2023-05-10T16:08:57;16.90;96.80
2873;DHT22;1444;49.166;7.312;2023-05-10T16:11:24;17.00;95.80
2873;DHT22;1444;49.166;7.312;2023-05-10T16:13:52;17.10;95.80
2873;DHT22;1444;49.166;7.312;2023-05-10T16:16:19;17.20;95.90
2873;DHT22;1444;49.166;7.312;2023-05-10T16:18:45;17.40;95.30
2873;DHT22;1444;49.166;7.312;2023-05-10T16:21:12;17.70;95.30
2873;DHT22;1444;49.166;7.312;2023-05-10T16:23:39;18.00;95.50